Time;durP1;ratioP1;P1;durP2;ratioP2;P2;SDS_P1;SDS_P2;PMS_P1;PMS_P2;Temp;Humidity;BMP_temperature;BMP_pressure;BME280_temperature;BME280_humidity;BME280_pressure;Samples;Min_cycle;Max_cycle;Signal;HPM_P1;HPM_P2
2022/01/29 00:00:54;;;;;;;72.05;33.67;;;;;;;;;;5092256;28;20440;-79
2022/01/29 00:03:21;;;;;;;80.22;34.70;;;;;;;;;;5113283;28;20027;-79
2022/01/29 00:05:47;;;;;;;88.07;37.97;;;;;;;;;;5113773;28;20135;-79
2022/01/29 00:08:13;;;;;;;98.85;40.47;;;;;;;;;;5113487;28;20020;-80
2022/01/29 00:10:40;;;;;;;98.18;41.35;;;;;;;;;;5113517;28;20371;-80
2022/01/29 00:13:06;;;;;;;99.95;42.33;;;;;;;;;;5113635;28;20016;-80
2022/01/29 00:15:32;;;;;;;97.18;42.85;;;;;;;;;;5113313;28;20023;-79
2022/01/29 00:17:58;;;;;;;104.85;42.60;;;;;;;;;;5113635;28;20016;-80
2022/01/29 00:20:24;;;;;;;93.82;41.97;;;;;;;;;;5113608;28;20359;-80
2022/01/29 00:22:50;;;;;;;94.28;38.40;;;;;;;;;;5113630;28;20481;-79
2022/01/29 00:25:16;;;;;;;100.28;43.92;;;;;;;;;;5113500;28;20023;-79
2022/01/29 00:27:42;;;;;;;106.18;43.88;;;;;;;;;;5114057;28;20032;-79
2022/01/29 00:30:13;;;;;;;108.05;44.38;;;;;;;;;;5113471;28;20107;-79
2022/01/29 00:32:39;;;;;;;102.18;41.70;;;;;;;;;;5112627;28;20051;-79
2022/01/29 00:35:05;;;;;;;113.22;44.22;;;;;;;;;;5114159;28;20534;-80
2022/01/29 00:37:31;;;;;;;90.18;38.53;;;;;;;;;;5113983;28;20015;-79
2022/01/29 00:39:57;;;;;;;93.00;40.00;;;;;;;;;;5113853;28;20096;-79
2022/01/29 00:42:23;;;;;;;100.03;42.92;;;;;;;;;;5095886;28;20088;-79
2022/01/29 00:44:50;;;;;;;90.85;40.92;;;;;;;;;;5113783;28;20106;-80
2022/01/29 00:47:16;;;;;;;86.65;38.95;;;;;;;;;;5113854;28;20064;-79
2022/01/29 00:49:43;;;;;;;84.43;37.97;;;;;;;;;;5095534;28;20024;-79
2022/01/29 00:52:09;;;;;;;100.20;41.38;;;;;;;;;;5113579;28;20103;-79
2022/01/29 00:54:35;;;;;;;105.10;42.97;;;;;;;;;;5113978;28;20016;-79
2022/01/29 00:57:01;;;;;;;88.47;37.55;;;;;;;;;;5114043;28;20020;-79
2022/01/29 00:59:27;;;;;;;103.63;43.40;;;;;;;;;;5113751;28;20020;-79
2022/01/29 01:01:53;;;;;;;91.50;38.63;;;;;;;;;;5113681;28;20513;-79
2022/01/29 01:04:19;;;;;;;90.75;37.42;;;;;;;;;;5113540;28;20100;-79
2022/01/29 01:06:45;;;;;;;99.25;39.38;;;;;;;;;;5112427;28;20028;-79
2022/01/29 01:09:11;;;;;;;89.78;39.08;;;;;;;;;;5114116;28;20035;-79
2022/01/29 01:11:37;;;;;;;82.88;37.83;;;;;;;;;;5111928;28;20031;-79
2022/01/29 01:14:03;;;;;;;92.80;37.75;;;;;;;;;;5113435;28;20080;-80
2022/01/29 01:16:29;;;;;;;99.10;38.03;;;;;;;;;;5113232;28;20077;-79
2022/01/29 01:18:55;;;;;;;90.55;37.22;;;;;;;;;;5113428;28;20028;-79
2022/01/29 01:21:21;;;;;;;73.97;34.33;;;;;;;;;;5113634;28;20028;-79
2022/01/29 01:23:47;;;;;;;81.15;35.05;;;;;;;;;;5094998;28;20091;-79
2022/01/29 01:26:13;;;;;;;88.18;36.67;;;;;;;;;;5095265;28;20073;-79
2022/01/29 01:28:40;;;;;;;86.00;33.30;;;;;;;;;;5096638;28;20034;-79
2022/01/29 01:31:06;;;;;;;74.50;34.90;;;;;;;;;;5098983;28;20508;-79
2022/01/29 01:33:32;;;;;;;66.97;32.22;;;;;;;;;;5117192;28;20134;-79
2022/01/29 01:36:02;;;;;;;74.63;32.88;;;;;;;;;;5117058;28;20112;-79
2022/01/29 01:38:41;;;;;;;80.20;31.67;;;;;;;;;;5117549;28;20016;-80
2022/01/29 01:41:12;;;;;;;69.60;33.50;;;;;;;;;;5117307;28;20024;-79
2022/01/29 01:43:38;;;;;;;75.07;33.33;;;;;;;;;;5116840;28;20458;-79
2022/01/29 01:46:04;;;;;;;77.30;33.67;;;;;;;;;;5117093;28;20031;-79
2022/01/29 01:48:30;;;;;;;74.00;31.67;;;;;;;;;;5116822;28;20521;-79
2022/01/29 01:50:56;;;;;;;69.50;30.42;;;;;;;;;;5117366;28;20085;-79
2022/01/29 01:53:23;;;;;;;77.47;34.92;;;;;;;;;;5116739;28;20028;-79
2022/01/29 01:55:49;;;;;;;71.50;33.15;;;;;;;;;;5116689;28;20016;-79
2022/01/29 01:58:15;;;;;;;75.90;34.17;;;;;;;;;;5116860;28;20015;-80
2022/01/29 02:00:41;;;;;;;81.47;34.90;;;;;;;;;;5116735;28;20064;-80
2022/01/29 02:03:08;;;;;;;79.88;31.85;;;;;;;;;;5116324;28;20061;-78
2022/01/29 02:05:35;;;;;;;81.53;36.05;;;;;;;;;;5116373;28;20092;-79
2022/01/29 02:08:02;;;;;;;93.55;33.97;;;;;;;;;;5116303;28;20131;-79
2022/01/29 02:10:28;;;;;;;87.15;35.60;;;;;;;;;;5116390;28;20023;-79
2022/01/29 02:12:57;;;;;;;83.03;33.33;;;;;;;;;;5116750;28;20016;-79
2022/01/29 02:15:23;;;;;;;94.47;35.78;;;;;;;;;;5114955;28;20024;-79
2022/01/29 02:17:50;;;;;;;75.38;31.90;;;;;;;;;;5097356;28;20477;-79
2022/01/29 02:20:17;;;;;;;73.90;31.85;;;;;;;;;;5094762;28;20165;-79
2022/01/29 02:22:44;;;;;;;94.30;36.20;;;;;;;;;;5095851;28;20020;-79
2022/01/29 02:25:29;;;;;;;96.93;36.15;;;;;;;;;;5094324;28;20431;-79
2022/01/29 02:27:55;;;;;;;89.95;36.03;;;;;;;;;;5095668;28;20020;-79
2022/01/29 02:30:22;;;;;;;67.13;28.17;;;;;;;;;;5095931;28;20020;-79
2022/01/29 02:32:48;;;;;;;80.90;32.63;;;;;;;;;;5095385;28;20020;-80
2022/01/29 02:35:14;;;;;;;73.78;29.48;;;;;;;;;;5094252;28;20078;-79
2022/01/29 02:37:40;;;;;;;62.60;26.63;;;;;;;;;;5094361;28;20114;-79
2022/01/29 02:40:07;;;;;;;55.08;25.88;;;;;;;;;;5095078;28;20027;-78
2022/01/29 02:42:33;;;;;;;58.47;26.48;;;;;;;;;;5094385;28;20487;-79
2022/01/29 02:44:59;;;;;;;67.93;28.60;;;;;;;;;;5099447;28;20068;-80
2022/01/29 02:47:31;;;;;;;54.47;25.10;;;;;;;;;;5115773;28;20021;-79
2022/01/29 02:49:57;;;;;;;;;;;;;;;;;;5114825;28;20103;-79
2022/01/29 02:52:23;;;;;;;45.67;22.25;;;;;;;;;;5115783;28;19966;-79
2022/01/29 02:54:49;;;;;;;47.72;24.00;;;;;;;;;;5114316;28;20478;-79
2022/01/29 02:57:15;;;;;;;51.15;22.92;;;;;;;;;;5114251;28;20122;-79
2022/01/29 02:59:41;;;;;;;56.67;26.85;;;;;;;;;;5114128;28;20024;-79
2022/01/29 03:02:07;;;;;;;53.47;24.83;;;;;;;;;;5115756;28;20024;-79
2022/01/29 03:04:33;;;;;;;45.22;22.85;;;;;;;;;;5115501;28;20027;-79
2022/01/29 03:06:59;;;;;;;54.53;24.75;;;;;;;;;;5115342;28;20016;-79
2022/01/29 03:09:26;;;;;;;48.28;24.42;;;;;;;;;;5115487;28;20019;-79
2022/01/29 03:11:52;;;;;;;54.42;23.67;;;;;;;;;;5115431;28;20047;-79
2022/01/29 03:14:18;;;;;;;49.80;23.40;;;;;;;;;;5115253;28;20016;-79
2022/01/29 03:16:45;;;;;;;48.40;23.95;;;;;;;;;;5105611;28;20473;-79
2022/01/29 03:19:11;;;;;;;53.33;24.52;;;;;;;;;;5076363;28;20419;-79
2022/01/29 03:21:37;;;;;;;52.08;23.52;;;;;;;;;;5094598;28;20024;-79
2022/01/29 03:24:03;;;;;;;51.83;23.27;;;;;;;;;;5076279;28;20028;-80
2022/01/29 03:26:29;;;;;;;55.38;25.33;;;;;;;;;;5094573;28;20024;-79
2022/01/29 03:28:55;;;;;;;53.50;24.42;;;;;;;;;;5094610;28;20024;-79
2022/01/29 03:31:21;;;;;;;51.75;24.52;;;;;;;;;;5094557;28;20027;-79
2022/01/29 03:33:47;;;;;;;57.05;25.95;;;;;;;;;;5093984;28;20482;-79
2022/01/29 03:36:13;;;;;;;60.90;26.80;;;;;;;;;;5094437;28;20055;-79
2022/01/29 03:38:40;;;;;;;57.30;25.77;;;;;;;;;;5094673;28;20020;-79
2022/01/29 03:41:08;;;;;;;55.78;23.83;;;;;;;;;;5094439;28;20127;-78
2022/01/29 03:43:41;;;;;;;55.63;26.13;;;;;;;;;;5094573;28;20300;-79
2022/01/29 03:46:07;;;;;;;63.95;27.35;;;;;;;;;;5107940;28;20031;-79
2022/01/29 03:48:33;;;;;;;61.60;27.75;;;;;;;;;;5096399;28;20046;-79
2022/01/29 03:50:59;;;;;;;63.30;27.25;;;;;;;;;;5113965;28;20414;-79
2022/01/29 03:53:25;;;;;;;70.50;28.98;;;;;;;;;;5114208;28;20063;-79
2022/01/29 03:55:51;;;;;;;79.70;31.05;;;;;;;;;;5114314;28;20028;-79
2022/01/29 03:58:17;;;;;;;75.07;30.02;;;;;;;;;;5114165;28;20027;-79
2022/01/29 04:00:43;;;;;;;70.35;31.85;;;;;;;;;;5114389;28;20027;-79
2022/01/29 04:03:09;;;;;;;83.72;29.95;;;;;;;;;;5113536;28;20084;-79
2022/01/29 04:05:35;;;;;;;82.03;31.80;;;;;;;;;;5112933;28;20034;-79
2022/01/29 04:08:02;;;;;;;82.45;30.95;;;;;;;;;;5094370;28;20093;-79
2022/01/29 04:10:29;;;;;;;84.63;33.35;;;;;;;;;;5113771;28;20015;-79
2022/01/29 04:12:56;;;;;;;83.07;32.25;;;;;;;;;;5113576;28;20098;-80
2022/01/29 04:15:22;;;;;;;82.18;30.00;;;;;;;;;;5095452;28;20466;-78
2022/01/29 04:17:48;;;;;;;79.13;29.92;;;;;;;;;;5113861;28;20020;-79
2022/01/29 04:20:14;;;;;;;100.03;33.10;;;;;;;;;;5113994;28;20386;-79
2022/01/29 04:22:40;;;;;;;78.95;29.42;;;;;;;;;;5113711;28;20367;-79
2022/01/29 04:25:07;;;;;;;76.25;28.88;;;;;;;;;;5113799;28;20038;-79
2022/01/29 04:27:40;;;;;;;89.63;32.92;;;;;;;;;;5114299;28;20518;-79
2022/01/29 04:30:12;;;;;;;91.63;33.92;;;;;;;;;;5112520;28;20019;-79
2022/01/29 04:35:04;;;;;;;97.85;33.35;;;;;;;;;;5113649;28;20401;-79
2022/01/29 04:37:30;;;;;;;101.78;34.67;;;;;;;;;;5114070;28;20379;-79
2022/01/29 04:39:56;;;;;;;99.88;37.65;;;;;;;;;;5114138;28;20019;-79
2022/01/29 04:42:22;;;;;;;105.90;36.10;;;;;;;;;;5114289;28;20046;-79
2022/01/29 04:44:48;;;;;;;112.47;38.28;;;;;;;;;;5112827;28;20046;-79
2022/01/29 04:47:14;;;;;;;98.47;35.55;;;;;;;;;;5113731;28;20023;-79
2022/01/29 04:49:40;;;;;;;116.82;39.40;;;;;;;;;;5113593;28;20442;-79
2022/01/29 04:52:06;;;;;;;106.28;37.28;;;;;;;;;;5095588;28;20092;-79
2022/01/29 04:54:33;;;;;;;128.90;41.03;;;;;;;;;;5113941;28;20469;-79
2022/01/29 04:56:59;;;;;;;122.05;40.45;;;;;;;;;;5113574;28;20012;-79
2022/01/29 04:59:25;;;;;;;124.05;40.63;;;;;;;;;;5113425;28;20038;-79
2022/01/29 05:01:51;;;;;;;112.10;38.50;;;;;;;;;;5113797;28;20106;-79
2022/01/29 05:04:18;;;;;;;109.53;38.83;;;;;;;;;;5117746;28;20112;-79
2022/01/29 05:06:44;;;;;;;109.32;39.10;;;;;;;;;;5117500;28;20034;-78
2022/01/29 05:09:10;;;;;;;112.22;38.50;;;;;;;;;;5117468;28;20023;-79
2022/01/29 05:11:37;;;;;;;100.35;36.10;;;;;;;;;;5099212;28;20027;-79
2022/01/29 05:14:07;;;;;;;112.80;37.85;;;;;;;;;;5117178;28;20024;-79
2022/01/29 05:16:44;;;;;;;103.72;38.45;;;;;;;;;;5117389;28;20103;-79
2022/01/29 05:27:24;;;;;;;96.03;36.53;;;;;;;;;;5117422;28;20034;-79
2022/01/29 05:29:50;;;;;;;85.50;32.75;;;;;;;;;;5117104;28;20058;-79
2022/01/29 05:32:16;;;;;;;86.72;35.83;;;;;;;;;;5117411;28;20024;-79
2022/01/29 05:34:42;;;;;;;87.20;36.13;;;;;;;;;;5116437;28;20043;-79
2022/01/29 05:37:08;;;;;;;98.75;35.60;;;;;;;;;;5115647;28;20350;-79
2022/01/29 05:39:34;;;;;;;84.15;32.50;;;;;;;;;;5117226;28;20027;-79
2022/01/29 05:42:00;;;;;;;79.55;34.40;;;;;;;;;;5116714;28;20026;-79
2022/01/29 05:44:27;;;;;;;77.60;33.50;;;;;;;;;;5116926;28;20112;-79
2022/01/29 05:46:53;;;;;;;66.75;31.20;;;;;;;;;;5117099;28;20510;-79
2022/01/29 05:49:19;;;;;;;77.60;31.92;;;;;;;;;;5116990;28;20020;-79
2022/01/29 05:51:45;;;;;;;62.03;31.52;;;;;;;;;;5117000;28;20026;-79
2022/01/29 05:54:11;;;;;;;60.42;29.60;;;;;;;;;;5116783;28;20056;-79
2022/01/29 05:56:37;;;;;;;68.18;30.38;;;;;;;;;;5116411;28;20012;-79
2022/01/29 05:59:03;;;;;;;68.72;30.60;;;;;;;;;;5116416;28;20015;-79
2022/01/29 06:01:29;;;;;;;64.15;29.52;;;;;;;;;;5116550;28;20362;-79
2022/01/29 06:03:55;;;;;;;69.53;28.88;;;;;;;;;;5098391;28;20369;-79
2022/01/29 06:06:21;;;;;;;52.08;25.65;;;;;;;;;;5116562;28;20054;-79
2022/01/29 06:08:47;;;;;;;57.60;27.35;;;;;;;;;;5116431;28;20024;-79
2022/01/29 06:11:14;;;;;;;47.05;24.25;;;;;;;;;;5115842;28;20023;-78
2022/01/29 06:13:40;;;;;;;43.85;24.98;;;;;;;;;;5115324;28;20081;-79
2022/01/29 06:16:06;;;;;;;45.55;24.45;;;;;;;;;;5116261;28;20081;-79
2022/01/29 06:18:33;;;;;;;55.50;25.80;;;;;;;;;;5115797;28;20020;-79
2022/01/29 06:21:04;;;;;;;43.25;23.42;;;;;;;;;;5115926;28;20080;-79
2022/01/29 06:23:33;;;;;;;49.27;24.17;;;;;;;;;;5116065;28;20077;-79
2022/01/29 06:26:00;;;;;;;58.40;26.67;;;;;;;;;;5116007;28;20027;-79
2022/01/29 06:28:26;;;;;;;55.25;26.45;;;;;;;;;;5115941;28;20560;-79
2022/01/29 06:30:52;;;;;;;44.30;24.38;;;;;;;;;;5116105;28;20084;-78
2022/01/29 06:33:18;;;;;;;48.88;23.20;;;;;;;;;;5116056;28;20028;-79
2022/01/29 06:35:45;;;;;;;49.75;22.92;;;;;;;;;;5115380;28;20443;-79
2022/01/29 06:38:12;;;;;;;48.17;22.52;;;;;;;;;;5115711;28;20066;-79
2022/01/29 06:40:39;;;;;;;44.20;21.98;;;;;;;;;;5115577;28;20035;-79
2022/01/29 06:43:05;;;;;;;45.33;22.83;;;;;;;;;;5115502;28;20028;-79
2022/01/29 06:45:32;;;;;;;49.22;23.58;;;;;;;;;;5115288;28;20034;-79
2022/01/29 06:47:58;;;;;;;54.25;24.75;;;;;;;;;;5115381;28;20024;-79
2022/01/29 06:50:24;;;;;;;49.70;23.38;;;;;;;;;;5115346;28;20035;-79
2022/01/29 06:52:50;;;;;;;47.05;23.10;;;;;;;;;;5115582;28;20031;-79
2022/01/29 06:55:16;;;;;;;50.35;22.90;;;;;;;;;;5115140;28;20027;-79
2022/01/29 06:57:42;;;;;;;47.42;23.35;;;;;;;;;;5115403;28;20024;-80
2022/01/29 07:00:09;;;;;;;47.08;23.17;;;;;;;;;;5113928;28;20028;-79
2022/01/29 07:02:35;;;;;;;51.95;22.13;;;;;;;;;;5115443;28;20335;-79
2022/01/29 07:05:02;;;;;;;47.50;23.23;;;;;;;;;;5115353;28;20052;-79
2022/01/29 07:07:28;;;;;;;50.70;21.35;;;;;;;;;;5115611;28;20081;-79
2022/01/29 07:09:54;;;;;;;42.00;20.98;;;;;;;;;;5114814;28;20368;-79
2022/01/29 07:12:20;;;;;;;42.70;20.73;;;;;;;;;;5115274;28;20020;-79
2022/01/29 07:14:49;;;;;;;42.67;20.35;;;;;;;;;;5115290;28;20072;-79
2022/01/29 07:17:17;;;;;;;43.45;20.00;;;;;;;;;;5114890;28;20795;-79
2022/01/29 07:19:43;;;;;;;38.35;20.40;;;;;;;;;;5114825;28;20089;-79
2022/01/29 07:22:09;;;;;;;39.72;20.50;;;;;;;;;;5115159;28;20032;-79
2022/01/29 07:24:35;;;;;;;40.35;20.38;;;;;;;;;;5114939;28;20035;-79
2022/01/29 07:27:02;;;;;;;38.80;18.90;;;;;;;;;;5114696;28;20068;-79
2022/01/29 07:29:28;;;;;;;37.70;20.80;;;;;;;;;;5114792;28;20023;-79
2022/01/29 07:31:56;;;;;;;43.42;20.67;;;;;;;;;;5115001;28;20042;-79
2022/01/29 07:34:22;;;;;;;47.83;22.17;;;;;;;;;;5114607;28;20049;-79
2022/01/29 07:36:48;;;;;;;44.58;20.52;;;;;;;;;;5114498;28;20077;-79
2022/01/29 07:39:14;;;;;;;42.75;20.05;;;;;;;;;;5114644;28;20024;-79
2022/01/29 07:41:40;;;;;;;36.80;19.48;;;;;;;;;;5114223;28;20027;-79
2022/01/29 07:44:06;;;;;;;37.33;20.13;;;;;;;;;;5114447;28;20039;-79
2022/01/29 07:46:33;;;;;;;43.90;19.85;;;;;;;;;;5114174;28;20032;-79
2022/01/29 07:48:59;;;;;;;42.70;17.95;;;;;;;;;;5096204;28;20474;-79
2022/01/29 07:51:25;;;;;;;36.25;16.95;;;;;;;;;;5114695;28;20024;-79
2022/01/29 07:53:51;;;;;;;43.85;17.83;;;;;;;;;;5114379;28;20047;-79
2022/01/29 07:56:20;;;;;;;41.72;18.35;;;;;;;;;;5114463;28;20343;-79
2022/01/29 07:58:46;;;;;;;42.00;18.77;;;;;;;;;;5114186;28;20016;-79
2022/01/29 08:01:13;;;;;;;44.10;18.48;;;;;;;;;;5113966;28;20024;-79
2022/01/29 08:03:39;;;;;;;40.45;18.67;;;;;;;;;;5114086;28;20034;-79
2022/01/29 08:06:05;;;;;;;36.28;17.77;;;;;;;;;;5114153;28;20020;-79
2022/01/29 08:08:37;;;;;;;32.05;16.17;;;;;;;;;;5114318;28;20027;-79
2022/01/29 08:11:03;;;;;;;;;;;;;;;;;;5114595;28;20106;-79
2022/01/29 08:13:29;;;;;;;32.70;16.13;;;;;;;;;;5114116;28;20320;-79
2022/01/29 08:15:55;;;;;;;33.25;17.27;;;;;;;;;;5113925;28;20016;-79
2022/01/29 08:18:21;;;;;;;39.25;16.60;;;;;;;;;;5113737;28;20085;-79
2022/01/29 08:20:47;;;;;;;35.83;15.65;;;;;;;;;;5110495;28;20036;-79
2022/01/29 08:23:13;;;;;;;34.22;16.13;;;;;;;;;;5101143;28;20032;-80
2022/01/29 08:25:40;;;;;;;42.38;18.13;;;;;;;;;;5099886;28;20063;-79
2022/01/29 08:28:06;;;;;;;34.80;16.65;;;;;;;;;;5107263;28;21491;-79
2022/01/29 08:30:33;;;;;;;38.25;16.90;;;;;;;;;;5082781;28;20136;-79
2022/01/29 08:33:00;;;;;;;29.80;13.90;;;;;;;;;;5103476;28;20023;-79
2022/01/29 08:35:26;;;;;;;27.55;13.88;;;;;;;;;;5101345;28;20528;-79
2022/01/29 08:37:53;;;;;;;35.58;15.20;;;;;;;;;;5105679;28;20031;-79
2022/01/29 08:40:20;;;;;;;28.48;14.00;;;;;;;;;;5109774;28;20026;-79
2022/01/29 08:42:46;;;;;;;36.97;15.63;;;;;;;;;;5112360;28;20512;-79
2022/01/29 08:45:15;;;;;;;31.35;13.50;;;;;;;;;;5107812;28;20032;-79
2022/01/29 08:47:42;;;;;;;26.42;13.68;;;;;;;;;;5109263;28;20031;-79
2022/01/29 08:50:09;;;;;;;31.75;13.40;;;;;;;;;;5113655;28;20051;-80
2022/01/29 08:52:35;;;;;;;33.78;13.68;;;;;;;;;;5113733;28;20038;-80
2022/01/29 08:55:01;;;;;;;33.28;13.82;;;;;;;;;;5086573;28;20032;-79
2022/01/29 08:57:27;;;;;;;31.45;13.27;;;;;;;;;;5113664;28;20023;-79
2022/01/29 08:59:53;;;;;;;33.65;14.55;;;;;;;;;;5105196;28;20012;-79
2022/01/29 09:02:19;;;;;;;27.70;13.32;;;;;;;;;;5113670;28;20039;-79
2022/01/29 09:04:45;;;;;;;34.22;13.10;;;;;;;;;;5113380;28;20069;-79
2022/01/29 09:07:11;;;;;;;39.40;13.43;;;;;;;;;;5107246;28;20020;-79
2022/01/29 09:09:40;;;;;;;29.13;13.35;;;;;;;;;;5102481;28;20020;-79
2022/01/29 09:12:07;;;;;;;29.52;12.27;;;;;;;;;;5093930;28;20386;-79
2022/01/29 09:14:33;;;;;;;27.98;12.20;;;;;;;;;;5093134;28;20025;-79
2022/01/29 09:16:59;;;;;;;23.75;11.32;;;;;;;;;;5110975;28;20020;-79
2022/01/29 09:19:25;;;;;;;29.67;13.73;;;;;;;;;;5113550;28;20016;-79
2022/01/29 09:21:51;;;;;;;36.58;13.82;;;;;;;;;;5107191;28;20454;-80
2022/01/29 09:24:17;;;;;;;26.63;11.15;;;;;;;;;;5074672;28;20032;-79
2022/01/29 09:26:43;;;;;;;28.23;12.63;;;;;;;;;;5103235;28;20250;-79
2022/01/29 09:29:09;;;;;;;28.98;10.45;;;;;;;;;;5098530;28;20470;-79
2022/01/29 09:31:35;;;;;;;27.55;10.82;;;;;;;;;;5110360;28;20032;-79
2022/01/29 09:34:02;;;;;;;29.40;11.95;;;;;;;;;;5096235;28;20032;-78
2022/01/29 09:36:28;;;;;;;32.85;10.50;;;;;;;;;;5089842;28;20028;-79
2022/01/29 09:38:54;;;;;;;15.75;8.77;;;;;;;;;;5095622;28;20446;-79
2022/01/29 09:41:23;;;;;;;30.45;9.20;;;;;;;;;;5092945;28;20024;-81
2022/01/29 09:43:49;;;;;;;22.20;8.63;;;;;;;;;;5095214;28;20446;-79
2022/01/29 09:46:16;;;;;;;18.45;7.05;;;;;;;;;;5108570;28;20068;-79
2022/01/29 09:48:44;;;;;;;16.70;7.03;;;;;;;;;;5113142;28;20016;-79
2022/01/29 09:51:12;;;;;;;19.67;7.63;;;;;;;;;;5107110;28;20028;-78
2022/01/29 09:53:39;;;;;;;18.48;7.15;;;;;;;;;;5112834;28;20020;-80
2022/01/29 09:56:05;;;;;;;15.57;6.50;;;;;;;;;;5117015;28;20028;-79
2022/01/29 09:58:31;;;;;;;21.27;7.22;;;;;;;;;;5117067;28;20022;-79
2022/01/29 10:00:57;;;;;;;19.25;7.18;;;;;;;;;;5116825;28;20147;-79
2022/01/29 10:03:24;;;;;;;13.82;6.43;;;;;;;;;;5098542;28;20031;-80
2022/01/29 10:05:51;;;;;;;19.00;6.22;;;;;;;;;;5116633;28;20016;-78
2022/01/29 10:08:18;;;;;;;17.05;5.50;;;;;;;;;;5116033;28;20074;-80
2022/01/29 10:10:48;;;;;;;13.15;5.95;;;;;;;;;;5084904;28;20035;-80
2022/01/29 10:13:34;;;;;;;10.55;5.47;;;;;;;;;;5110948;28;20109;-84
2022/01/29 10:16:09;;;;;;;13.30;4.85;;;;;;;;;;5087095;28;20048;-81
2022/01/29 10:18:35;;;;;;;19.63;5.05;;;;;;;;;;5099322;28;20056;-80
2022/01/29 10:21:08;;;;;;;17.30;6.53;;;;;;;;;;5096035;28;20024;-80
2022/01/29 10:23:35;;;;;;;11.93;5.10;;;;;;;;;;5095763;28;20024;-80
2022/01/29 10:26:02;;;;;;;14.57;5.72;;;;;;;;;;5096160;28;20103;-84
2022/01/29 10:28:28;;;;;;;14.80;4.60;;;;;;;;;;5077434;28;20074;-82
2022/01/29 10:30:55;;;;;;;17.92;5.68;;;;;;;;;;5095460;28;20032;-79
2022/01/29 10:33:24;;;;;;;17.73;5.20;;;;;;;;;;5095947;28;20016;-80
2022/01/29 10:35:55;;;;;;;16.92;4.03;;;;;;;;;;5077375;28;20093;-79
2022/01/29 10:38:24;;;;;;;11.93;3.90;;;;;;;;;;5095389;28;20016;-79
2022/01/29 10:41:09;;;;;;;10.75;4.38;;;;;;;;;;5077422;28;20077;-79
2022/01/29 10:43:35;;;;;;;20.55;5.57;;;;;;;;;;5095097;28;20073;-78
2022/01/29 10:46:01;;;;;;;12.40;3.97;;;;;;;;;;5107556;28;20027;-79
2022/01/29 10:48:43;;;;;;;12.57;3.95;;;;;;;;;;5095523;28;20031;-78
2022/01/29 10:51:12;;;;;;;18.00;4.32;;;;;;;;;;5104996;28;20034;-78
2022/01/29 10:53:38;;;;;;;16.35;4.80;;;;;;;;;;5098092;28;20099;-77
2022/01/29 10:56:04;;;;;;;17.50;4.47;;;;;;;;;;5101310;28;20039;-78
2022/01/29 10:58:32;;;;;;;15.32;4.03;;;;;;;;;;5109705;28;20027;-78
2022/01/29 11:01:15;;;;;;;14.90;3.38;;;;;;;;;;5103474;28;20043;-78
2022/01/29 11:03:41;;;;;;;;;;;;;;;;;;5115064;28;20023;-78
2022/01/29 11:06:10;;;;;;;12.45;3.05;;;;;;;;;;5106341;28;19950;-77
2022/01/29 11:08:39;;;;;;;12.38;3.28;;;;;;;;;;5105874;28;20026;-78
2022/01/29 11:11:05;;;;;;;9.52;2.35;;;;;;;;;;5102416;28;20462;-77
2022/01/29 11:13:32;;;;;;;14.55;2.80;;;;;;;;;;5100283;28;20012;-78
2022/01/29 11:15:58;;;;;;;10.88;2.33;;;;;;;;;;5104684;28;20023;-78
2022/01/29 11:18:26;;;;;;;6.68;2.38;;;;;;;;;;5107122;28;20027;-78
2022/01/29 11:20:52;;;;;;;10.18;2.80;;;;;;;;;;5101746;28;20469;-78
2022/01/29 11:23:19;;;;;;;11.52;2.45;;;;;;;;;;5102326;28;20030;-78
2022/01/29 11:25:45;;;;;;;11.02;2.00;;;;;;;;;;5102016;28;20028;-78
2022/01/29 11:28:15;;;;;;;11.55;2.83;;;;;;;;;;5099831;28;20024;-78
2022/01/29 11:30:43;;;;;;;9.60;1.95;;;;;;;;;;5102769;28;20024;-78
2022/01/29 11:33:09;;;;;;;10.57;1.50;;;;;;;;;;5102478;28;20019;-78
2022/01/29 11:35:50;;;;;;;9.40;2.22;;;;;;;;;;5101330;28;20035;-78
2022/01/29 11:38:27;;;;;;;9.82;1.85;;;;;;;;;;5101411;28;20553;-77
2022/01/29 11:41:01;;;;;;;7.93;2.05;;;;;;;;;;5102500;28;20024;-79
2022/01/29 11:43:29;;;;;;;6.82;1.83;;;;;;;;;;5094157;28;20091;-78
2022/01/29 11:46:03;;;;;;;8.40;1.60;;;;;;;;;;5105301;28;20114;-77
2022/01/29 11:48:38;;;;;;;11.20;2.08;;;;;;;;;;5114271;28;20126;-82
2022/01/29 11:51:08;;;;;;;7.72;2.17;;;;;;;;;;5095947;28;20501;-81
2022/01/29 11:53:48;;;;;;;10.30;1.77;;;;;;;;;;5096338;28;20046;-82
2022/01/29 11:56:33;;;;;;;11.32;2.20;;;;;;;;;;5113980;28;20038;-82
2022/01/29 11:59:18;;;;;;;10.15;1.90;;;;;;;;;;5114064;28;20024;-82
2022/01/29 12:01:44;;;;;;;9.80;1.60;;;;;;;;;;5095543;28;20031;-83
2022/01/29 12:04:11;;;;;;;8.50;2.03;;;;;;;;;;5113614;28;20023;-82
2022/01/29 12:06:42;;;;;;;7.00;1.77;;;;;;;;;;5113925;28;20149;-82
2022/01/29 12:09:14;;;;;;;4.70;1.73;;;;;;;;;;5113131;28;20023;-82
2022/01/29 12:11:41;;;;;;;11.10;2.63;;;;;;;;;;5111822;28;20028;-81
2022/01/29 12:14:14;;;;;;;6.30;2.10;;;;;;;;;;5095530;28;20126;-82
2022/01/29 12:16:47;;;;;;;7.97;2.10;;;;;;;;;;5095415;28;20019;-83
2022/01/29 12:19:32;;;;;;;10.02;2.00;;;;;;;;;;5095303;28;20123;-79
2022/01/29 12:21:58;;;;;;;11.75;2.00;;;;;;;;;;5113416;28;20032;-80
2022/01/29 12:24:24;;;;;;;6.95;1.80;;;;;;;;;;5095095;28;20358;-80
2022/01/29 12:26:54;;;;;;;8.93;1.80;;;;;;;;;;5113616;28;20369;-82
2022/01/29 12:29:22;;;;;;;7.95;2.10;;;;;;;;;;5113553;28;20466;-83
2022/01/29 12:31:53;;;;;;;8.20;2.20;;;;;;;;;;5106132;28;20075;-78
2022/01/29 12:34:20;;;;;;;6.72;1.58;;;;;;;;;;5075091;28;20401;-82
2022/01/29 12:36:47;;;;;;;8.40;1.75;;;;;;;;;;5074753;28;20034;-83
2022/01/29 12:39:22;;;;;;;9.52;2.35;;;;;;;;;;5074578;28;20073;-82
2022/01/29 12:42:23;;;;;;;9.13;2.13;;;;;;;;;;5093191;28;20506;-82
2022/01/29 12:44:52;;;;;;;9.93;2.10;;;;;;;;;;5095722;28;20485;-83
2022/01/29 12:47:36;;;;;;;11.15;1.73;;;;;;;;;;5113509;28;20020;-82
2022/01/29 12:50:03;;;;;;;6.28;1.60;;;;;;;;;;5095052;28;20050;-83
2022/01/29 12:52:30;;;;;;;7.95;1.77;;;;;;;;;;5113505;28;20067;-85
2022/01/29 12:54:57;;;;;;;7.93;2.10;;;;;;;;;;5110013;28;20044;-81
2022/01/29 12:57:24;;;;;;;6.50;2.58;;;;;;;;;;5102333;28;20028;-82
2022/01/29 12:59:50;;;;;;;4.35;1.23;;;;;;;;;;5085087;28;20462;-78
2022/01/29 13:02:16;;;;;;;10.48;1.67;;;;;;;;;;5080443;28;20028;-81
2022/01/29 13:04:46;;;;;;;8.45;2.58;;;;;;;;;;5102707;28;20056;-79
2022/01/29 13:07:13;;;;;;;7.28;2.15;;;;;;;;;;5109484;28;20027;-80
2022/01/29 13:09:40;;;;;;;6.55;1.60;;;;;;;;;;5078233;28;20040;-82
2022/01/29 13:12:07;;;;;;;6.18;1.58;;;;;;;;;;5102149;28;20434;-84
2022/01/29 13:14:34;;;;;;;13.55;3.05;;;;;;;;;;5095243;28;20419;-82
2022/01/29 13:17:01;;;;;;;7.57;2.47;;;;;;;;;;5094822;28;20094;-79
2022/01/29 13:19:28;;;;;;;7.78;1.73;;;;;;;;;;5113037;28;20019;-77
2022/01/29 13:21:58;;;;;;;6.50;1.75;;;;;;;;;;5112936;28;20057;-80
2022/01/29 13:24:28;;;;;;;10.57;1.85;;;;;;;;;;5116096;28;20084;-81
2022/01/29 13:26:58;;;;;;;7.60;1.63;;;;;;;;;;5115823;28;20027;-80
2022/01/29 13:29:32;;;;;;;12.73;1.85;;;;;;;;;;5116309;28;20107;-79
2022/01/29 13:31:58;;;;;;;11.57;1.90;;;;;;;;;;5117345;28;20369;-80
2022/01/29 13:34:33;;;;;;;6.68;1.92;;;;;;;;;;5117161;28;20038;-81
2022/01/29 13:37:00;;;;;;;7.43;2.20;;;;;;;;;;5116919;28;20439;-82
2022/01/29 13:39:27;;;;;;;18.88;2.75;;;;;;;;;;5117427;28;20106;-80
2022/01/29 13:42:29;;;;;;;17.80;3.75;;;;;;;;;;5116980;28;20020;-81
2022/01/29 13:45:08;;;;;;;12.37;3.00;;;;;;;;;;5014360;28;20045;-81
2022/01/29 13:47:36;;;;;;;10.10;2.58;;;;;;;;;;5014298;28;20492;-81
2022/01/29 13:50:20;;;;;;;11.43;2.58;;;;;;;;;;5014010;28;20096;-80
2022/01/29 13:53:01;;;;;;;11.23;2.25;;;;;;;;;;5014480;28;20480;-81
2022/01/29 13:55:28;;;;;;;14.05;3.40;;;;;;;;;;5014127;28;20140;-82
2022/01/29 13:58:04;;;;;;;12.25;2.80;;;;;;;;;;5014341;28;20053;-84
2022/01/29 14:00:50;;;;;;;9.10;2.50;;;;;;;;;;5014690;28;20030;-82
2022/01/29 14:03:16;;;;;;;10.65;2.58;;;;;;;;;;5014065;28;20425;-82
2022/01/29 14:05:42;;;;;;;9.13;2.30;;;;;;;;;;5014372;28;20081;-83
2022/01/29 14:08:18;;;;;;;8.07;1.98;;;11.40;99.90;;;;;;5013818;28;20453;-84
2022/01/29 14:10:44;;;;;;;10.52;2.20;;;;;;;;;;5013988;28;20033;-81
2022/01/29 14:13:11;;;;;;;7.28;1.80;;;;;;;;;;5014418;28;20117;-84
2022/01/29 14:15:37;;;;;;;10.05;2.20;;;;;;;;;;5014263;28;20430;-82
2022/01/29 14:18:03;;;;;;;7.10;1.98;;;;;;;;;;5013636;28;20030;-80
2022/01/29 14:20:31;;;;;;;6.43;2.17;;;;;;;;;;5056960;28;20493;-80
2022/01/29 14:22:57;;;;;;;6.82;1.60;;;;;;;;;;5095898;28;20055;-82
2022/01/29 14:25:23;;;;;;;6.65;1.65;;;;;;;;;;5105004;28;20500;-79
2022/01/29 14:27:50;;;;;;;6.65;1.33;;;;;;;;;;5104591;28;20019;-78
2022/01/29 14:30:15;;;;;;;8.40;2.30;;;11.50;99.90;;;;;;5109987;28;20031;-79
2022/01/29 14:32:42;;;;;;;6.82;1.65;;;;;;;;;;5105109;28;20353;-79
2022/01/29 14:35:10;;;;;;;8.73;3.10;;;;;;;;;;5078692;28;20550;-78